Harmon, Oklahoma
Current Conditions -  °F | °C
As of 5:53 AM on Tuesday 27 Jan 2015 (Local Time) from KGAG Reporting Station
Clear Clear  
Wind Chill: 30°   Ceiling: Unl
Heat Index: 36°   Visibility: 10mi
Dew Point: 31°   Wind: 7mph
Humidity: 82%   Direction: 250°WSW
Pressure: 30.14"   Gusts: NA
Location:  36.0611°N, 99.7076°W
Report Text: KGAG 271153Z AUTO 25006KT 10SM CLR 02/M01 A3014 RMK AO2 SLP201 T00221006 10056 20022 58003
Loading
Personal Weather Stations






























Interactive Weather Map New forecast layout! Learn more

10-Day Weather Forecast

Advertisements
Track Severe Weather on mobile